createdAt,value
2023-05-02T00:01:21.822Z,101043.81
2023-05-02T00:03:49.371Z,101006.72
2023-05-02T00:06:18.110Z,100973.66
2023-05-02T00:08:45.481Z,100959.34
2023-05-02T00:11:12.806Z,100942.59
2023-05-02T00:13:40.063Z,100923.38
2023-05-02T00:16:07.460Z,100905.03
2023-05-02T00:18:35.417Z,100887.72
2023-05-02T00:21:02.759Z,100884.94
2023-05-02T00:23:31.434Z,100869.72
2023-05-02T00:25:58.775Z,100869.72
2023-05-02T00:28:26.081Z,100872.06
2023-05-02T00:30:53.506Z,100879.34
2023-05-02T00:33:20.838Z,100875.31
2023-05-02T00:35:48.165Z,100869.72
2023-05-02T00:38:15.391Z,100852.31
2023-05-02T00:40:44.948Z,100847.50
2023-05-02T00:43:12.316Z,100849.63
2023-05-02T00:45:39.972Z,100848.41
2023-05-02T00:48:07.559Z,100818.84
2023-05-02T00:50:38.079Z,100804.88
2023-05-02T00:53:05.436Z,100799.06
2023-05-02T00:55:33.518Z,100795.59
2023-05-02T00:58:05.135Z,100781.97
2023-05-02T01:00:46.609Z,100778.63
2023-05-02T01:03:25.624Z,100775.91
2023-05-02T01:06:05.287Z,100773.25
2023-05-02T01:08:38.996Z,100771.25
2023-05-02T01:11:14.954Z,100750.00
2023-05-02T01:13:46.479Z,100754.47
2023-05-02T01:16:15.980Z,100752.00
2023-05-02T01:18:44.856Z,100755.69
2023-05-02T01:21:12.469Z,100738.84
2023-05-02T01:23:51.382Z,100721.97
2023-05-02T01:26:27.497Z,100697.56
2023-05-02T01:29:01.594Z,100671.78
2023-05-02T01:31:33.066Z,100649.31
2023-05-02T01:34:02.323Z,100608.69
2023-05-02T01:36:33.395Z,100539.63
2023-05-02T01:39:02.057Z,100495.91
2023-05-02T01:41:32.261Z,100436.47
2023-05-02T01:44:02.565Z,100360.94
2023-05-02T01:46:33.655Z,100289.25
2023-05-02T01:49:03.646Z,100197.97
2023-05-02T01:51:33.696Z,100127.31
2023-05-02T01:54:04.184Z,100052.78
2023-05-02T01:56:35.588Z,99989.94
2023-05-02T01:59:06.582Z,99939.91
2023-05-02T02:01:36.371Z,99908.00
2023-05-02T02:04:05.970Z,99879.53
2023-05-02T02:06:33.469Z,99856.13
2023-05-02T02:09:01.592Z,99853.81
2023-05-02T02:11:34.915Z,99847.97
2023-05-02T02:14:09.406Z,99832.16
2023-05-02T02:16:41.600Z,99823.78
2023-05-02T02:19:13.160Z,99826.25
2023-05-02T02:21:42.335Z,99826.41
2023-05-02T02:24:11.355Z,99835.25
2023-05-02T02:26:39.113Z,99837.72
2023-05-02T02:29:08.694Z,99837.44
2023-05-02T02:31:36.599Z,99850.41
2023-05-02T02:34:03.967Z,99868.84
2023-05-02T02:36:39.828Z,99895.19
2023-05-02T02:39:16.973Z,99904.00
2023-05-02T02:41:52.868Z,99914.00
2023-05-02T02:44:35.071Z,99937.41
2023-05-02T02:47:09.553Z,99955.50
2023-05-02T02:49:47.504Z,99966.16
2023-05-02T02:52:23.746Z,99982.53
2023-05-02T02:54:56.707Z,100005.25
2023-05-02T02:57:29.374Z,100037.34
2023-05-02T03:00:08.569Z,100057.97
2023-05-02T03:02:37.428Z,100075.56
2023-05-02T03:05:07.240Z,100080.34
2023-05-02T03:07:34.584Z,100107.25
2023-05-02T03:10:04.304Z,100120.72
2023-05-02T03:12:33.945Z,100145.19
2023-05-02T03:15:19.918Z,100159.56
2023-05-02T03:17:47.340Z,100179.34
2023-05-02T03:20:14.642Z,100198.59
2023-05-02T03:22:42.380Z,100216.88
2023-05-02T03:25:10.042Z,100238.22
2023-05-02T03:27:42.107Z,100266.13
2023-05-02T03:30:13.147Z,100290.50
2023-05-02T03:32:40.594Z,100313.75
2023-05-02T03:35:08.536Z,100349.41
2023-05-02T03:37:40.428Z,100399.44
2023-05-02T03:40:08.921Z,100457.72
2023-05-02T03:42:36.230Z,100510.09
2023-05-02T03:45:03.991Z,100554.84
2023-05-02T03:47:32.678Z,100588.25
2023-05-02T03:50:00.567Z,100641.44
2023-05-02T03:52:28.780Z,100673.19
2023-05-02T03:54:56.104Z,100705.94
2023-05-02T03:57:24.105Z,100726.28
2023-05-02T03:59:51.454Z,100756.81
2023-05-02T04:02:26.943Z,100795.41
2023-05-02T04:04:56.664Z,100841.25
2023-05-02T04:07:24.548Z,100871.09
2023-05-02T04:09:59.149Z,100890.91
2023-05-02T04:12:27.188Z,100924.28
2023-05-02T04:14:54.716Z,100974.78
2023-05-02T04:17:26.508Z,101012.25
2023-05-02T04:19:53.963Z,101050.50
2023-05-02T04:22:26.543Z,101099.59
2023-05-02T04:24:58.343Z,101143.63
2023-05-02T04:27:26.917Z,101167.50
2023-05-02T04:29:54.492Z,101185.72
2023-05-02T04:32:22.857Z,101217.94
2023-05-02T04:34:50.533Z,101244.84
2023-05-02T04:37:18.564Z,101259.56
2023-05-02T04:39:48.616Z,101273.03
2023-05-02T04:42:19.885Z,101309.53
2023-05-02T04:45:12.838Z,101296.16
2023-05-02T04:47:40.382Z,101315.72
2023-05-02T04:50:09.181Z,101346.44
2023-05-02T04:52:36.527Z,101351.66
2023-05-02T04:55:06.339Z,101381.81
2023-05-02T04:57:33.994Z,101391.16
2023-05-02T05:00:03.154Z,101414.81
2023-05-02T05:02:30.879Z,101431.88
2023-05-02T05:05:00.760Z,101449.44
2023-05-02T05:07:28.145Z,101465.22
2023-05-02T05:09:55.916Z,101484.72
2023-05-02T05:12:27.332Z,101502.59
2023-05-02T05:14:54.593Z,101520.44
2023-05-02T05:17:23.924Z,101528.72
2023-05-02T05:19:51.245Z,101540.25
2023-05-02T05:22:18.785Z,101551.06
2023-05-02T05:24:51.808Z,101571.81
2023-05-02T05:27:19.940Z,101578.53
2023-05-02T05:29:48.923Z,101581.31
2023-05-02T05:32:16.800Z,101602.72
2023-05-02T05:34:44.871Z,101613.09
2023-05-02T05:37:13.037Z,101621.03
2023-05-02T05:39:40.926Z,101624.19
2023-05-02T05:42:08.350Z,101639.22
2023-05-02T05:44:35.815Z,101651.97
2023-05-02T05:47:05.619Z,101668.66
2023-05-02T05:49:33.023Z,101674.22
2023-05-02T05:52:00.818Z,101675.09
2023-05-02T05:54:28.204Z,101675.09
2023-05-02T05:56:55.519Z,101662.44
2023-05-02T05:59:22.784Z,101657.69
2023-05-02T06:01:50.059Z,101659.66
2023-05-02T06:04:21.720Z,101668.75
2023-05-02T06:06:51.179Z,101697.31
2023-05-02T06:09:18.550Z,101717.94
2023-05-02T06:11:45.909Z,101740.13
2023-05-02T06:14:13.383Z,101748.41
2023-05-02T06:16:40.855Z,101770.19
2023-05-02T06:19:09.033Z,101833.78
2023-05-02T06:21:37.872Z,101867.50
2023-05-02T06:24:05.726Z,101894.50
2023-05-02T06:26:33.203Z,101921.06
2023-05-02T06:29:00.710Z,101951.22
2023-05-02T06:31:28.150Z,101981.38
2023-05-02T06:33:55.438Z,101979.81
2023-05-02T06:36:22.674Z,101993.28
2023-05-02T06:38:51.289Z,102007.56
2023-05-02T06:41:18.633Z,102036.94
2023-05-02T06:43:46.011Z,102058.38
2023-05-02T06:46:13.498Z,102078.22
2023-05-02T06:48:41.003Z,102094.09
2023-05-02T06:51:08.636Z,102119.91
2023-05-02T06:53:36.418Z,102146.50
2023-05-02T06:56:05.958Z,102148.50
2023-05-02T06:58:33.230Z,102156.84
2023-05-02T07:01:00.586Z,102171.53
2023-05-02T07:03:28.098Z,102178.28
2023-05-02T07:05:55.469Z,102185.44
2023-05-02T07:08:22.801Z,102202.13
2023-05-02T07:10:50.473Z,102201.31
2023-05-02T07:13:19.168Z,102214.03
2023-05-02T07:15:46.492Z,102221.94
2023-05-02T07:18:13.720Z,102221.97
2023-05-02T07:20:41.086Z,102233.50
2023-05-02T07:23:08.714Z,102241.81
2023-05-02T07:25:36.035Z,102248.63
2023-05-02T07:28:03.600Z,102263.28
2023-05-02T07:30:32.443Z,102282.00
2023-05-02T07:32:59.941Z,102309.44
2023-05-02T07:35:27.737Z,102325.34
2023-05-02T07:37:55.419Z,102345.59
2023-05-02T07:40:23.014Z,102351.56
2023-05-02T07:42:50.426Z,102363.91
2023-05-02T07:45:18.148Z,102361.53
2023-05-02T07:47:47.048Z,102372.66
2023-05-02T07:50:14.536Z,102379.00
2023-05-02T07:52:41.814Z,102376.63
2023-05-02T07:55:09.894Z,102392.16
2023-05-02T07:57:37.296Z,102388.97
2023-05-02T08:00:06.711Z,102389.78
2023-05-02T08:02:41.736Z,102393.75
2023-05-02T08:05:10.757Z,102396.16
2023-05-02T08:07:38.150Z,102416.81
2023-05-02T08:10:06.727Z,102415.53
2023-05-02T08:12:38.188Z,102400.13
2023-05-02T08:15:06.975Z,102413.63
2023-05-02T08:17:34.397Z,102415.19
2023-05-02T08:20:02.351Z,102415.25
2023-05-02T08:22:31.401Z,102426.81
2023-05-02T08:24:59.157Z,102429.16
2023-05-02T08:27:26.791Z,102435.53
2023-05-02T08:29:54.161Z,102427.13
2023-05-02T08:32:21.620Z,102441.00
2023-05-02T08:34:48.945Z,102443.00
2023-05-02T08:37:16.181Z,102447.38
2023-05-02T08:39:44.862Z,102453.34
2023-05-02T08:42:12.199Z,102446.97
2023-05-02T08:44:39.653Z,102435.94
2023-05-02T08:47:10.894Z,102449.09
2023-05-02T08:49:39.145Z,102455.78
2023-05-02T08:52:09.043Z,102453.34
2023-05-02T08:54:38.307Z,102455.41
2023-05-02T08:57:07.680Z,102464.63
2023-05-02T08:59:34.997Z,102463.03
2023-05-02T09:02:12.670Z,102475.69
2023-05-02T09:04:42.753Z,102467.34
2023-05-02T09:07:10.912Z,102471.75
2023-05-02T09:09:38.335Z,102471.34
2023-05-02T09:12:07.064Z,102469.78
2023-05-02T09:14:34.853Z,102470.84
2023-05-02T09:17:02.299Z,102471.72
2023-05-02T09:19:29.719Z,102475.56
2023-05-02T09:22:00.793Z,102483.25
2023-05-02T09:24:28.251Z,102477.66
2023-05-02T09:27:00.004Z,102481.78
2023-05-02T09:29:29.782Z,102484.94
2023-05-02T09:31:57.117Z,102488.31
2023-05-02T09:34:24.517Z,102483.81
2023-05-02T09:36:52.528Z,102491.31
2023-05-02T09:39:26.265Z,102491.41
2023-05-02T09:41:54.432Z,102497.03
2023-05-02T09:44:23.669Z,102487.59
2023-05-02T09:46:55.050Z,102467.06
2023-05-02T09:49:39.830Z,102472.72
2023-05-02T09:52:11.211Z,102488.72
2023-05-02T09:54:38.693Z,102524.78
2023-05-02T09:57:06.006Z,102525.47
2023-05-02T09:59:33.568Z,102520.91
2023-05-02T10:02:03.600Z,102526.34
2023-05-02T10:04:32.609Z,102514.22
2023-05-02T10:07:01.739Z,102515.03
2023-05-02T10:09:29.991Z,102523.94
2023-05-02T10:11:57.426Z,102529.03
2023-05-02T10:14:28.619Z,102546.03
2023-05-02T10:17:04.897Z,102551.38
2023-05-02T10:19:38.698Z,102545.75
2023-05-02T10:22:07.181Z,102541.75
2023-05-02T10:24:34.961Z,102524.75
2023-05-02T10:27:04.303Z,102530.19
2023-05-02T10:29:32.108Z,102556.56
2023-05-02T10:32:03.449Z,102546.13
2023-05-02T10:34:32.706Z,102555.53
2023-05-02T10:37:00.011Z,102563.28
2023-05-02T10:39:32.092Z,102566.53
2023-05-02T10:42:00.781Z,102564.94
2023-05-02T10:44:35.068Z,102555.78
2023-05-02T10:47:18.806Z,102557.75
2023-05-02T10:49:52.866Z,102559.38
2023-05-02T10:52:28.088Z,102558.09
2023-05-02T10:55:17.094Z,102572.88
2023-05-02T10:58:20.241Z,102572.75
2023-05-02T11:00:47.913Z,102580.88
2023-05-02T11:03:55.469Z,102578.94
2023-05-02T11:06:23.216Z,102587.03
2023-05-02T11:08:50.468Z,102578.13
2023-05-02T11:11:40.245Z,102579.72
2023-05-02T11:14:08.047Z,102583.06
2023-05-02T11:17:06.837Z,102592.13
2023-05-02T11:20:07.450Z,102594.63
2023-05-02T11:22:36.109Z,102603.03
2023-05-02T11:25:03.938Z,102606.31
2023-05-02T11:27:37.664Z,102607.16
2023-05-02T11:30:07.728Z,102603.19
2023-05-02T11:33:18.020Z,102601.56
2023-05-02T11:35:47.551Z,102595.22
2023-05-02T11:38:21.934Z,102625.06
2023-05-02T11:40:57.227Z,102606.34
2023-05-02T11:43:26.681Z,102599.59
2023-05-02T11:45:55.676Z,102613.44
2023-05-02T11:48:23.793Z,102618.97
2023-05-02T11:50:52.624Z,102621.28
2023-05-02T11:53:23.511Z,102612.06
2023-05-02T11:55:53.437Z,102613.56
2023-05-02T11:58:22.868Z,102617.34
2023-05-02T12:00:51.394Z,102619.91
2023-05-02T12:03:23.897Z,102626.53
2023-05-02T12:05:51.625Z,102615.53
2023-05-02T12:08:22.254Z,102617.28
2023-05-02T12:10:50.333Z,102616.06
2023-05-02T12:13:17.711Z,102622.31
2023-05-02T12:15:45.357Z,102609.00
2023-05-02T12:18:14.099Z,102623.56
2023-05-02T12:20:42.361Z,102623.81
2023-05-02T12:23:10.193Z,102628.38
2023-05-02T12:25:39.917Z,102630.09
2023-05-02T12:28:07.447Z,102631.09
2023-05-02T12:30:36.087Z,102640.00
2023-05-02T12:33:04.115Z,102644.88
2023-05-02T12:35:32.562Z,102648.50
2023-05-02T12:38:11.980Z,102644.56
2023-05-02T12:40:47.149Z,102661.00
2023-05-02T12:43:14.529Z,102661.56
2023-05-02T12:45:41.700Z,102671.25
2023-05-02T12:48:24.017Z,102671.66
2023-05-02T12:50:52.285Z,102690.38
2023-05-02T12:53:41.199Z,102679.25
2023-05-02T12:56:10.523Z,102681.28
2023-05-02T12:58:42.591Z,102682.66
2023-05-02T13:01:10.650Z,102678.72
2023-05-02T13:03:38.208Z,102689.03
2023-05-02T13:06:06.307Z,102694.09
2023-05-02T13:08:34.492Z,102689.19
2023-05-02T13:11:02.066Z,102695.22
2023-05-02T13:13:33.408Z,102687.63
2023-05-02T13:16:00.835Z,102694.78
2023-05-02T13:18:28.255Z,102698.00
2023-05-02T13:20:55.663Z,102702.38
2023-05-02T13:23:22.991Z,102699.16
2023-05-02T13:25:50.349Z,102703.97
2023-05-02T13:28:17.666Z,102704.38
2023-05-02T13:30:46.399Z,102692.78
2023-05-02T13:33:13.756Z,102701.97
2023-05-02T13:35:41.254Z,102700.31
2023-05-02T13:38:08.671Z,102709.16
2023-05-02T13:40:36.064Z,102706.78
2023-05-02T13:43:03.311Z,102717.16
2023-05-02T13:45:30.854Z,102720.72
2023-05-02T13:47:59.555Z,102715.16
2023-05-02T13:50:27.105Z,102715.56
2023-05-02T13:52:54.393Z,102721.13
2023-05-02T13:55:21.810Z,102709.22
2023-05-02T13:57:49.036Z,102706.44
2023-05-02T14:00:16.875Z,102719.91
2023-05-02T14:02:44.158Z,102720.31
2023-05-02T14:05:12.932Z,102719.97
2023-05-02T14:07:40.268Z,102721.13
2023-05-02T14:10:09.120Z,102728.31
2023-05-02T14:12:36.459Z,102724.72
2023-05-02T14:15:04.381Z,102736.25
2023-05-02T14:17:31.846Z,102735.78
2023-05-02T14:19:59.384Z,102744.59
2023-05-02T14:22:28.201Z,102733.81
2023-05-02T14:24:55.521Z,102743.81
2023-05-02T14:27:24.268Z,102734.28
2023-05-02T14:29:51.548Z,102728.66
2023-05-02T14:32:18.888Z,102726.13
2023-05-02T14:34:46.291Z,102730.50
2023-05-02T14:37:13.443Z,102735.63
2023-05-02T14:39:42.458Z,102723.50
2023-05-02T14:42:09.779Z,102728.72
2023-05-02T14:44:37.129Z,102734.97
2023-05-02T14:47:04.590Z,102744.94
2023-05-02T14:49:32.516Z,102735.03
2023-05-02T14:52:00.003Z,102757.03
2023-05-02T14:54:27.490Z,102751.03
2023-05-02T14:56:56.667Z,102749.78
2023-05-02T14:59:23.990Z,102736.28
2023-05-02T15:01:51.587Z,102745.84
2023-05-02T15:04:19.155Z,102753.84
2023-05-02T15:06:46.767Z,102768.16
2023-05-02T15:09:14.232Z,102763.38
2023-05-02T15:11:41.543Z,102763.34
2023-05-02T15:14:10.251Z,102762.59
2023-05-02T15:16:37.758Z,102762.59
2023-05-02T15:19:05.164Z,102765.75
2023-05-02T15:21:32.425Z,102768.97
2023-05-02T15:24:00.865Z,102764.13
2023-05-02T15:26:28.336Z,102762.56
2023-05-02T15:28:55.770Z,102755.75
2023-05-02T15:31:24.860Z,102768.91
2023-05-02T15:33:52.720Z,102765.00
2023-05-02T15:36:20.704Z,102776.91
2023-05-02T15:38:48.413Z,102779.34
2023-05-02T15:41:15.861Z,102772.97
2023-05-02T15:43:45.226Z,102772.19
2023-05-02T15:46:12.584Z,102773.38
2023-05-02T15:48:41.347Z,102773.75
2023-05-02T15:51:08.716Z,102771.72
2023-05-02T15:53:36.352Z,102768.59
2023-05-02T15:56:03.668Z,102780.25
2023-05-02T15:58:31.182Z,102785.97
2023-05-02T16:00:58.427Z,102790.06
2023-05-02T16:03:25.775Z,102785.28
2023-05-02T16:05:55.040Z,102793.75
2023-05-02T16:08:22.479Z,102792.16
2023-05-02T16:10:49.816Z,102803.31
2023-05-02T16:13:17.475Z,102798.50
2023-05-02T16:15:45.746Z,102797.69
2023-05-02T16:18:13.141Z,102797.69
2023-05-02T16:20:40.723Z,102802.13
2023-05-02T16:23:09.551Z,102800.91
2023-05-02T16:25:36.847Z,102800.13
2023-05-02T16:28:04.132Z,102796.28
2023-05-02T16:30:31.440Z,102802.16
2023-05-02T16:32:58.869Z,102807.84
2023-05-02T16:35:26.097Z,102775.84
2023-05-02T16:37:53.414Z,102777.38
2023-05-02T16:40:22.246Z,102799.50
2023-05-02T16:42:49.580Z,102806.38
2023-05-02T16:45:17.021Z,102804.44
2023-05-02T16:47:44.348Z,102797.84
2023-05-02T16:50:11.699Z,102804.41
2023-05-02T16:52:38.930Z,102820.44
2023-05-02T16:55:06.367Z,102827.97
2023-05-02T16:57:35.009Z,102824.84
2023-05-02T17:00:02.500Z,102823.22
2023-05-02T17:02:30.041Z,102826.78
2023-05-02T17:04:58.404Z,102828.31
2023-05-02T17:07:25.709Z,102836.00
2023-05-02T17:09:53.143Z,102825.63
2023-05-02T17:12:20.347Z,102820.84
2023-05-02T17:14:49.205Z,102816.63
2023-05-02T17:17:16.521Z,102809.19
2023-05-02T17:19:43.720Z,102822.44
2023-05-02T17:22:10.967Z,102832.00
2023-05-02T17:24:38.289Z,102837.56
2023-05-02T17:27:05.611Z,102841.56
2023-05-02T17:29:32.845Z,102849.94
2023-05-02T17:32:01.807Z,102847.16
2023-05-02T17:34:29.057Z,102852.72
2023-05-02T17:36:57.129Z,102852.50
2023-05-02T17:39:24.484Z,102849.25
2023-05-02T17:41:51.758Z,102845.34
2023-05-02T17:44:18.961Z,102848.25
2023-05-02T17:46:46.708Z,102844.25
2023-05-02T17:49:15.385Z,102842.91
2023-05-02T17:51:42.678Z,102839.75
2023-05-02T17:54:09.993Z,102832.34
2023-05-02T17:56:37.572Z,102831.41
2023-05-02T17:59:04.866Z,102843.66
2023-05-02T18:01:32.521Z,102842.63
2023-05-02T18:03:59.994Z,102844.88
2023-05-02T18:06:30.043Z,102849.72
2023-05-02T18:08:57.488Z,102849.53
2023-05-02T18:11:38.499Z,102851.66
2023-05-02T18:14:06.009Z,102859.97
2023-05-02T18:16:34.044Z,102859.56
2023-05-02T18:19:01.710Z,102855.97
2023-05-02T18:21:30.909Z,102860.66
2023-05-02T18:23:58.289Z,102861.81
2023-05-02T18:26:26.465Z,102859.56
2023-05-02T18:28:54.078Z,102858.59
2023-05-02T18:31:21.694Z,102854.13
2023-05-02T18:33:49.338Z,102866.31
2023-05-02T18:36:23.598Z,102868.19
2023-05-02T18:38:52.640Z,102873.97
2023-05-02T18:41:19.889Z,102874.63
2023-05-02T18:43:47.254Z,102878.56
2023-05-02T18:46:14.603Z,102870.63
2023-05-02T18:48:41.957Z,102867.84
2023-05-02T18:51:09.533Z,102872.88
2023-05-02T18:53:37.177Z,102875.94
2023-05-02T18:56:11.845Z,102875.88
2023-05-02T18:58:40.575Z,102871.41
2023-05-02T19:01:14.409Z,102872.69
2023-05-02T19:03:42.147Z,102874.63
2023-05-02T19:06:09.563Z,102865.47
2023-05-02T19:08:38.006Z,102865.47
2023-05-02T19:11:07.213Z,102877.28
2023-05-02T19:13:34.609Z,102879.09
2023-05-02T19:16:02.323Z,102882.19
2023-05-02T19:18:29.971Z,102865.56
2023-05-02T19:20:57.434Z,102874.88
2023-05-02T19:23:25.149Z,102869.22
2023-05-02T19:25:52.890Z,102869.22
2023-05-02T19:28:21.593Z,102873.06
2023-05-02T19:30:48.914Z,102868.72
2023-05-02T19:33:18.908Z,102874.16
2023-05-02T19:35:46.248Z,102875.28
2023-05-02T19:38:13.720Z,102867.19
2023-05-02T19:40:40.918Z,102863.75
2023-05-02T19:43:08.265Z,102872.56
2023-05-02T19:45:39.087Z,102855.09
2023-05-02T19:48:06.936Z,102855.09
2023-05-02T19:50:35.166Z,102861.56
2023-05-02T19:53:03.556Z,102862.09
2023-05-02T19:55:30.764Z,102859.31
2023-05-02T19:58:00.098Z,102862.19
2023-05-02T20:00:27.635Z,102864.09
2023-05-02T20:02:57.324Z,102852.97
2023-05-02T20:05:25.032Z,102858.59
2023-05-02T20:07:52.383Z,102852.28
2023-05-02T20:10:19.791Z,102854.56
2023-05-02T20:12:47.354Z,102856.97
2023-05-02T20:15:15.314Z,102849.59
2023-05-02T20:17:42.829Z,102840.16
2023-05-02T20:20:12.461Z,102850.13
2023-05-02T20:22:40.040Z,102835.06
2023-05-02T20:25:09.250Z,102830.91
2023-05-02T20:27:36.486Z,102815.28
2023-05-02T20:30:04.553Z,102815.72
2023-05-02T20:32:32.257Z,102800.44
2023-05-02T20:34:59.551Z,102801.91
2023-05-02T20:37:28.567Z,102793.16
2023-05-02T20:39:55.963Z,102793.47
2023-05-02T20:42:25.223Z,102795.78
2023-05-02T20:44:56.976Z,102787.41
2023-05-02T20:47:25.878Z,102788.94
2023-05-02T20:49:53.826Z,102785.97
2023-05-02T20:52:21.304Z,102769.03
2023-05-02T20:54:53.777Z,102782.44
2023-05-02T20:57:21.312Z,102774.50
2023-05-02T20:59:48.597Z,102779.53
2023-05-02T21:02:15.894Z,102775.03
2023-05-02T21:04:43.075Z,102767.84
2023-05-02T21:07:11.648Z,102772.06
2023-05-02T21:09:38.879Z,102757.97
2023-05-02T21:12:07.562Z,102763.16
2023-05-02T21:14:35.125Z,102770.19
2023-05-02T21:17:02.399Z,102769.38
2023-05-02T21:19:29.648Z,102773.19
2023-05-02T21:21:56.909Z,102765.50
2023-05-02T21:24:24.170Z,102772.59
2023-05-02T21:26:51.552Z,102770.56
2023-05-02T21:29:20.229Z,102765.88
2023-05-02T21:31:47.856Z,102776.56
2023-05-02T21:34:15.132Z,102771.19
2023-05-02T21:36:42.436Z,102763.88
2023-05-02T21:39:09.723Z,102764.75
2023-05-02T21:41:37.062Z,102765.63
2023-05-02T21:44:04.496Z,102766.28
2023-05-02T21:46:33.266Z,102774.22
2023-05-02T21:49:00.624Z,102764.59
2023-05-02T21:51:28.026Z,102767.53
2023-05-02T21:53:55.264Z,102749.16
2023-05-02T21:56:22.658Z,102732.81
2023-05-02T21:58:50.052Z,102728.38
2023-05-02T22:01:17.656Z,102726.13
2023-05-02T22:03:46.745Z,102701.00
2023-05-02T22:06:14.081Z,102687.94
2023-05-02T22:08:41.334Z,102681.72
2023-05-02T22:11:08.602Z,102672.31
2023-05-02T22:13:36.998Z,102672.13
2023-05-02T22:16:05.408Z,102672.56
2023-05-02T22:18:32.636Z,102656.19
2023-05-02T22:21:01.341Z,102664.81
2023-05-02T22:23:28.635Z,102668.28
2023-05-02T22:25:57.170Z,102665.38
2023-05-02T22:28:24.608Z,102665.75
2023-05-02T22:30:51.852Z,102669.75
2023-05-02T22:33:19.177Z,102675.09
2023-05-02T22:35:46.502Z,102683.50
2023-05-02T22:38:16.148Z,102684.59
2023-05-02T22:40:43.514Z,102695.84
2023-05-02T22:43:10.866Z,102687.47
2023-05-02T22:45:38.354Z,102686.28
2023-05-02T22:48:06.447Z,102696.63
2023-05-02T22:50:34.816Z,102691.78
2023-05-02T22:53:02.359Z,102699.41
2023-05-02T22:55:31.002Z,102705.75
2023-05-02T22:57:58.355Z,102713.13
2023-05-02T23:00:25.715Z,102711.44
2023-05-02T23:02:53.168Z,102714.06
2023-05-02T23:05:20.702Z,102709.59
2023-05-02T23:07:48.028Z,102707.13
2023-05-02T23:10:15.477Z,102695.91
2023-05-02T23:12:44.140Z,102695.91
2023-05-02T23:15:11.737Z,102693.06
2023-05-02T23:17:39.212Z,102687.28
2023-05-02T23:20:08.324Z,102682.41
2023-05-02T23:22:37.216Z,102674.44
2023-05-02T23:25:06.209Z,102675.56
2023-05-02T23:27:33.437Z,102665.97
2023-05-02T23:30:02.649Z,102654.00
2023-05-02T23:32:30.356Z,102659.84
2023-05-02T23:34:57.721Z,102641.91
2023-05-02T23:37:25.929Z,102651.91
2023-05-02T23:39:53.273Z,102651.53
2023-05-02T23:42:20.524Z,102638.31
2023-05-02T23:44:47.820Z,102639.00
2023-05-02T23:47:16.356Z,102634.28
2023-05-02T23:49:43.608Z,102632.34
2023-05-02T23:52:10.774Z,102637.59
2023-05-02T23:54:38.047Z,102619.63
2023-05-02T23:57:05.270Z,102634.50
2023-05-02T23:59:32.520Z,102609.16
